Time;durP1;ratioP1;P1;durP2;ratioP2;P2;SDS_P1;SDS_P2;PMS_P1;PMS_P2;Temp;Humidity;BMP_temperature;BMP_pressure;BME280_temperature;BME280_humidity;BME280_pressure;Samples;Min_cycle;Max_cycle;Signal;HPM_P1;HPM_P2
2023/07/25 00:03:09;;;;;;;2.53;1.70;;;;;;;16.62;97.02;100207.94;6223114;28;20248;-68
2023/07/25 00:06:31;;;;;;;7.63;2.33;;;;;;;16.51;96.64;100211.13;6208714;28;20233;-69
2023/07/25 00:09:53;;;;;;;2.37;1.73;;;;;;;16.49;96.79;100205.03;6223112;28;20354;-68
2023/07/25 00:13:15;;;;;;;4.47;2.55;;;;;;;16.54;96.50;100208.00;6209233;28;20232;-68
2023/07/25 00:16:36;;;;;;;1.63;1.53;;;;;;;16.65;96.28;100206.66;6212496;28;20312;-68
2023/07/25 00:19:58;;;;;;;3.35;1.80;;;;;;;16.51;96.09;100213.00;6195422;28;20236;-68
2023/07/25 00:23:19;;;;;;;5.60;2.13;;;;;;;16.16;96.29;100209.16;6229476;28;20239;-68
2023/07/25 00:26:40;;;;;;;4.30;2.53;;;;;;;16.12;96.71;100212.44;6231015;28;20229;-68
2023/07/25 00:30:04;;;;;;;2.33;2.13;;;;;;;16.04;96.98;100215.28;6232986;28;20653;-67
2023/07/25 00:33:25;;;;;;;5.43;2.77;;;;;;;16.16;97.09;100216.47;6226692;28;20252;-68
2023/07/25 00:36:47;;;;;;;2.93;2.17;;;;;;;16.23;96.86;100229.13;6226655;28;20263;-68
2023/07/25 00:40:09;;;;;;;4.50;2.27;;;;;;;16.23;97.32;100233.75;6232839;28;20232;-68
2023/07/25 00:43:30;;;;;;;4.87;2.57;;;;;;;16.07;96.89;100232.03;6231720;28;20244;-68
2023/07/25 00:46:53;;;;;;;4.90;2.87;;;;;;;15.97;97.21;100231.47;6213901;28;20605;-68
2023/07/25 00:50:14;;;;;;;4.70;2.50;;;;;;;15.82;97.80;100230.63;6218797;28;20240;-68
2023/07/25 00:53:35;;;;;;;3.27;2.43;;;;;;;15.92;98.26;100233.91;6220945;28;21143;-68
2023/07/25 00:56:56;;;;;;;3.13;1.80;;;;;;;15.90;98.45;100242.25;6222417;28;20258;-68
2023/07/25 01:00:17;;;;;;;3.77;2.30;;;;;;;15.88;98.30;100230.72;6218747;28;20232;-68
2023/07/25 01:03:41;;;;;;;5.07;2.10;;;;;;;15.91;98.36;100233.09;6221376;28;20779;-68
2023/07/25 01:07:04;;;;;;;4.83;2.50;;;;;;;15.67;98.93;100241.47;6206445;28;20256;-68
2023/07/25 01:10:25;;;;;;;6.20;2.57;;;;;;;15.70;99.57;100241.09;6205388;28;20356;-68
2023/07/25 01:13:47;;;;;;;5.20;2.97;;;;;;;15.86;99.47;100250.97;6221200;28;20244;-68
2023/07/25 01:17:11;;;;;;;4.03;2.07;;;;;;;15.75;99.67;100249.53;6205588;28;20244;-68
2023/07/25 01:20:35;;;;;;;5.70;2.47;;;;;;;15.85;99.63;100244.66;6221558;28;20359;-68
2023/07/25 01:24:02;;;;;;;9.63;2.07;;;;;;;15.71;99.23;100250.94;6219507;28;20323;-69
2023/07/25 01:27:23;;;;;;;3.47;2.30;;;;;;;15.97;99.19;100240.50;6197684;28;20323;-69
2023/07/25 01:30:45;;;;;;;5.47;3.10;;;;;;;15.85;98.51;100241.94;6237696;28;21909;-69
2023/07/25 01:34:06;;;;;;;3.57;2.37;;;;;;;15.73;98.97;100251.59;6228477;28;20545;-69
2023/07/25 01:37:27;;;;;;;10.20;2.77;;;;;;;15.84;98.94;100253.03;6237535;28;20231;-69
2023/07/25 01:40:50;;;;;;;2.27;2.07;;;;;;;15.63;99.02;100263.75;6223203;28;20825;-68
2023/07/25 01:44:12;;;;;;;7.80;3.23;;;;;;;15.67;99.75;100271.34;6249469;28;20231;-68
2023/07/25 01:47:33;;;;;;;2.58;2.20;;;;;;;15.53;99.70;100264.03;6221333;28;20231;-68
2023/07/25 01:50:54;;;;;;;2.93;2.43;;;;;;;15.73;99.61;100265.19;6219501;28;20232;-68
2023/07/25 01:54:16;;;;;;;4.57;2.70;;;;;;;15.66;99.33;100266.13;6245721;28;20232;-67
2023/07/25 01:57:39;;;;;;;8.77;2.63;;;;;;;15.70;99.83;100275.59;6233766;28;20225;-68
2023/07/25 02:01:01;;;;;;;4.20;2.40;;;;;;;15.57;100.00;100267.19;6208500;28;20240;-68
2023/07/25 02:04:24;;;;;;;6.33;4.13;;;;;;;15.49;100.00;100270.00;6237645;28;20227;-68
2023/07/25 02:07:45;;;;;;;3.93;2.93;;;;;;;15.30;100.00;100286.75;6227481;28;20232;-69
2023/07/25 02:11:06;;;;;;;5.63;3.10;;;;;;;15.28;100.00;100280.66;6237449;28;21560;-68
2023/07/25 02:14:29;;;;;;;4.23;2.03;;;;;;;15.51;100.00;100276.94;6212178;28;20350;-68
2023/07/25 02:17:51;;;;;;;4.93;2.80;;;;;;;15.45;100.00;100272.25;6485968;22;20234;-68
2023/07/25 02:21:12;;;;;;;3.40;2.40;;;;;;;15.32;100.00;100279.25;6246099;28;20232;-67
2023/07/25 02:24:34;;;;;;;6.33;2.83;;;;;;;15.18;100.00;100275.47;6262920;28;20322;-67
2023/07/25 02:27:55;;;;;;;5.97;2.97;;;;;;;15.43;100.00;100282.44;6262580;28;20666;-68
2023/07/25 02:31:24;;;;;;;5.90;2.67;;;;;;;15.43;100.00;100290.59;6232598;28;20243;-68
2023/07/25 02:34:45;;;;;;;5.67;2.93;;;;;;;15.09;100.00;100288.25;6254858;28;20232;-69
2023/07/25 02:38:06;;;;;;;2.03;1.93;;;;;;;15.30;100.00;100286.75;6255559;28;20235;-68
2023/07/25 02:41:28;;;;;;;2.97;2.67;;;;;;;15.26;100.00;100286.28;6225688;28;20232;-68
2023/07/25 02:44:49;;;;;;;6.87;3.20;;;;;;;15.23;100.00;100282.03;6238393;28;21271;-68
2023/07/25 02:48:11;;;;;;;6.03;2.87;;;;;;;15.46;100.00;100283.97;6229396;28;20233;-68
2023/07/25 02:51:33;;;;;;;6.50;2.70;;;;;;;15.21;100.00;100297.66;6208710;28;20324;-68
2023/07/25 02:54:54;;;;;;;3.37;2.10;;;;;;;15.42;100.00;100288.00;6252613;28;20225;-68
2023/07/25 02:58:15;;;;;;;3.33;2.30;;;;;;;15.25;100.00;100292.72;6234602;28;20232;-68
2023/07/25 03:01:36;;;;;;;4.57;2.40;;;;;;;14.91;100.00;100292.28;6236460;28;20240;-68
2023/07/25 03:04:59;;;;;;;4.00;2.30;;;;;;;14.87;100.00;100289.03;6225986;28;20565;-68
2023/07/25 03:08:20;;;;;;;2.60;2.30;;;;;;;15.02;100.00;100289.97;6236656;28;20746;-69
2023/07/25 03:11:41;;;;;;;4.97;2.93;;;;;;;14.86;100.00;100300.09;6242709;28;20227;-67
2023/07/25 03:15:03;;;;;;;3.83;2.80;;;;;;;15.06;100.00;100291.31;6225331;28;20577;-68
2023/07/25 03:18:24;;;;;;;7.27;2.50;;;;;;;14.97;100.00;100300.56;6228607;28;20244;-68
2023/07/25 03:21:47;;;;;;;5.67;3.43;;;;;;;15.18;100.00;100298.03;6214633;28;20819;-68
2023/07/25 03:25:08;;;;;;;3.47;2.80;;;;;;;14.88;100.00;100290.75;6239097;28;20228;-68
2023/07/25 03:28:30;;;;;;;3.77;3.17;;;;;;;14.80;100.00;100296.22;6254459;28;20228;-69
2023/07/25 03:31:51;;;;;;;6.57;3.67;;;;;;;14.91;100.00;100295.84;6242628;28;20224;-69
2023/07/25 03:35:12;;;;;;;6.27;2.20;;;;;;;14.92;100.00;100293.94;6247998;28;20318;-69
2023/07/25 03:38:35;;;;;;;4.03;3.00;;;;;;;15.04;100.00;100296.06;6250508;28;20235;-69
2023/07/25 03:41:57;;;;;;;6.47;3.57;;;;;;;14.90;100.00;100296.00;6268307;28;20228;-68
2023/07/25 03:45:18;;;;;;;2.93;2.73;;;;;;;15.04;100.00;100297.97;6268874;28;20231;-68
2023/07/25 03:48:40;;;;;;;8.70;4.20;;;;;;;14.96;100.00;100308.84;6230889;28;20244;-68
2023/07/25 03:52:01;;;;;;;4.17;2.50;;;;;;;14.86;100.00;100306.38;6227688;28;20293;-68
2023/07/25 03:55:24;;;;;;;5.63;2.87;;;;;;;15.00;100.00;100302.88;6249584;28;20291;-68
2023/07/25 03:58:45;;;;;;;5.33;2.60;;;;;;;15.03;100.00;100315.28;6249039;28;20235;-68
2023/07/25 04:02:06;;;;;;;3.53;3.20;;;;;;;14.93;100.00;100306.50;6252385;28;20541;-68
2023/07/25 04:05:28;;;;;;;3.40;3.10;;;;;;;14.77;100.00;100310.13;6234896;28;20293;-67
2023/07/25 04:08:49;;;;;;;4.47;3.07;;;;;;;14.79;100.00;100316.22;6254690;28;20228;-68
2023/07/25 04:12:12;;;;;;;14.23;4.50;;;;;;;15.07;100.00;100303.03;6235275;28;20295;-68
2023/07/25 04:15:33;;;;;;;4.83;3.23;;;;;;;15.15;100.00;100302.97;6235410;28;20239;-67
2023/07/25 04:18:54;;;;;;;3.50;2.57;;;;;;;15.19;100.00;100302.44;6252862;28;20255;-68
2023/07/25 04:22:16;;;;;;;5.23;2.80;;;;;;;15.09;100.00;100292.84;6211593;28;20240;-68
2023/07/25 04:25:37;;;;;;;7.03;3.60;;;;;;;15.00;100.00;100293.91;6258362;28;20232;-68
2023/07/25 04:29:00;;;;;;;5.97;3.70;;;;;;;15.38;100.00;100301.13;6254837;28;20227;-68
2023/07/25 04:32:21;;;;;;;5.13;3.50;;;;;;;15.01;100.00;100298.31;6252065;28;20259;-67
2023/07/25 04:35:45;;;;;;;3.43;3.13;;;;;;;15.06;100.00;100304.88;6254959;28;20413;-67
2023/07/25 04:39:06;;;;;;;3.83;2.47;;;;;;;15.21;100.00;100304.97;6256843;28;20236;-67
2023/07/25 04:42:27;;;;;;;4.53;3.60;;;;;;;15.50;99.59;100301.59;6220814;28;20515;-68
2023/07/25 04:45:50;;;;;;;6.00;3.07;;;;;;;15.59;99.26;100311.34;6256010;28;20301;-68
2023/07/25 04:49:11;;;;;;;5.33;3.17;;;;;;;14.94;99.05;100302.75;6212672;28;20327;-70
2023/07/25 04:52:32;;;;;;;5.20;3.40;;;;;;;15.01;99.41;100296.44;6233513;28;20239;-67
2023/07/25 04:55:54;;;;;;;4.87;2.87;;;;;;;15.20;99.51;100300.56;6219262;28;20224;-69
2023/07/25 04:59:15;;;;;;;8.63;4.00;;;;;;;15.23;98.87;100311.06;6227035;28;20334;-68
2023/07/25 05:02:38;;;;;;;4.97;2.73;;;;;;;15.37;98.48;100315.75;6217300;28;20227;-69
2023/07/25 05:06:00;;;;;;;9.17;3.47;;;;;;;15.47;98.49;100315.50;6252731;28;20224;-69
2023/07/25 05:09:21;;;;;;;9.40;2.93;;;;;;;15.68;97.97;100321.97;6229683;28;20247;-69
2023/07/25 05:12:42;;;;;;;3.20;2.83;;;;;;;15.54;97.70;100316.50;6224795;28;20419;-70
2023/07/25 05:16:03;;;;;;;4.73;2.93;;;;;;;15.42;97.85;100317.88;6244488;28;20235;-69
2023/07/25 05:19:26;;;;;;;6.53;3.27;;;;;;;15.63;97.24;100318.09;6262299;28;20232;-68
2023/07/25 05:22:47;;;;;;;5.67;2.83;;;;;;;15.44;96.76;100308.56;6243695;28;20314;-69
2023/07/25 05:26:09;;;;;;;5.80;3.03;;;;;;;15.78;96.80;100313.56;6230471;28;20236;-69
2023/07/25 05:29:30;;;;;;;4.60;2.77;;;;;;;15.30;96.38;100316.63;6219018;28;20240;-69
2023/07/25 05:32:51;;;;;;;4.00;2.60;;;;;;;15.44;96.61;100321.28;6218653;28;20702;-69
2023/07/25 05:36:14;;;;;;;5.70;2.80;;;;;;;15.59;96.68;100319.50;6222119;28;20229;-70
2023/07/25 05:39:35;;;;;;;6.20;3.70;;;;;;;15.63;96.36;100327.09;6257907;28;20235;-70
2023/07/25 05:42:56;;;;;;;4.47;2.50;;;;;;;15.70;95.86;100327.22;6244435;28;20243;-69
2023/07/25 05:46:18;;;;;;;3.77;2.43;;;;;;;15.97;95.68;100323.94;6206914;28;20228;-69
2023/07/25 05:49:39;;;;;;;9.60;3.73;;;;;;;15.94;94.81;100322.41;6222136;28;20240;-69
2023/07/25 05:53:02;;;;;;;5.00;2.50;;;;;;;16.06;94.15;100330.97;6237682;28;20450;-70
2023/07/25 05:56:23;;;;;;;5.80;3.50;;;;;;;16.08;94.15;100323.50;6246362;28;20446;-69
2023/07/25 05:59:44;;;;;;;5.77;2.93;;;;;;;15.99;93.65;100328.16;6246375;28;20390;-68
2023/07/25 06:03:06;;;;;;;4.67;3.23;;;;;;;16.03;93.80;100317.75;6268400;28;20314;-70
2023/07/25 06:06:27;;;;;;;3.77;2.67;;;;;;;15.85;93.72;100309.91;6247902;28;20698;-69
2023/07/25 06:09:53;;;;;;;2.33;2.13;;;;;;;16.22;93.68;100306.34;6210215;28;20240;-69
2023/07/25 06:13:14;;;;;;;3.77;2.73;;;;;;;16.34;93.26;100309.41;6228378;28;20240;-69
2023/07/25 06:16:35;;;;;;;3.47;2.47;;;;;;;16.67;92.66;100311.59;6228351;28;20240;-69
2023/07/25 06:19:57;;;;;;;7.93;2.93;;;;;;;16.99;91.91;100309.50;6237492;28;20585;-70
2023/07/25 06:23:20;;;;;;;5.50;2.13;;;;;;;16.74;91.12;100300.81;6239912;28;20263;-70
2023/07/25 06:26:43;;;;;;;5.30;2.77;;;;;;;16.75;90.98;100297.06;6246352;28;20243;-68
2023/07/25 06:30:06;;;;;;;3.97;3.57;;;;;;;16.52;90.56;100301.78;6234023;28;20442;-69
2023/07/25 06:33:27;;;;;;;2.20;1.87;;;;;;;16.92;90.42;100295.78;6257038;28;20592;-69
2023/07/25 06:36:48;;;;;;;4.87;2.37;;;;;;;17.13;89.56;100305.88;6255372;28;20228;-70
2023/07/25 06:40:10;;;;;;;5.37;2.83;;;;;;;17.21;88.83;100297.63;6255542;28;20232;-70
2023/07/25 06:43:32;;;;;;;6.27;3.30;;;;;;;16.79;88.79;100306.53;6228337;28;20233;-70
2023/07/25 06:46:57;;;;;;;4.30;2.40;;;;;;;17.00;88.77;100311.19;6250921;28;20318;-70
2023/07/25 06:50:19;;;;;;;4.60;3.00;;;;;;;17.15;88.47;100320.16;6257464;28;20236;-69
2023/07/25 06:53:40;;;;;;;2.97;2.37;;;;;;;17.38;87.81;100316.22;6250975;28;20243;-69
2023/07/25 06:57:01;;;;;;;2.67;2.43;;;;;;;17.54;86.89;100321.44;6251086;28;20546;-69
2023/07/25 07:00:24;;;;;;;11.90;2.50;;;;;;;16.88;86.86;100324.44;6252693;28;20501;-68
2023/07/25 07:03:45;;;;;;;7.50;3.03;;;;;;;17.22;87.21;100326.53;6256898;28;20227;-68
2023/07/25 07:07:07;;;;;;;2.92;2.47;;;;;;;17.29;87.08;100338.34;6217641;28;20232;-69
2023/07/25 07:10:28;;;;;;;4.73;2.60;;;;;;;17.60;86.07;100328.03;6258398;28;20327;-69
2023/07/25 07:13:49;;;;;;;4.33;3.10;;;;;;;17.86;85.29;100336.44;6256219;28;20365;-69
2023/07/25 07:17:12;;;;;;;4.68;2.25;;;;;;;17.96;85.17;100339.66;6238825;28;20243;-70
2023/07/25 07:20:33;;;;;;;4.47;3.13;;;;;;;17.81;84.55;100343.53;6222566;28;20225;-70
2023/07/25 07:23:54;;;;;;;4.43;2.83;;;;;;;17.28;85.25;100359.31;6211076;28;20247;-70
2023/07/25 07:27:19;;;;;;;2.90;2.08;;;;;;;17.88;85.16;100360.78;6189936;28;20244;-70
2023/07/25 07:30:41;;;;;;;3.10;2.13;;;;;;;17.84;84.52;100363.06;6233472;28;20237;-70
2023/07/25 07:34:11;;;;;;;10.48;2.88;;;;;;;17.97;83.66;100365.06;6245908;28;20322;-70
2023/07/25 07:37:32;;;;;;;7.65;2.97;;;;;;;17.97;83.03;100370.53;6257101;28;20379;-69
2023/07/25 07:40:54;;;;;;;4.30;2.35;;;;;;;17.68;83.25;100370.66;6237558;28;20231;-69
2023/07/25 07:44:15;;;;;;;11.63;3.10;;;;;;;17.61;83.56;100376.03;6250654;28;20227;-69
2023/07/25 07:47:36;;;;;;;6.50;2.35;;;;;;;17.54;83.30;100381.41;6260851;28;20227;-69
2023/07/25 07:51:03;;;;;;;6.10;3.15;;;;;;;17.65;83.29;100381.97;6220224;28;20561;-69
2023/07/25 07:54:24;;;;;;;5.80;3.05;;;;;;;17.61;83.33;100380.69;6220066;28;20589;-69
2023/07/25 07:57:47;;;;;;;5.90;2.55;;;;;;;17.44;83.58;100378.13;6244410;28;20235;-69
2023/07/25 08:01:15;;;;;;;2.65;1.90;;;;;;;18.05;82.90;100373.13;6250013;28;20350;-69
2023/07/25 08:04:36;;;;;;;5.88;2.78;;;;;;;17.74;82.91;100369.88;6266312;28;20310;-69
2023/07/25 08:07:58;;;;;;;3.95;2.50;;;;;;;17.58;83.11;100391.94;6251004;28;20317;-69
2023/07/25 08:11:19;;;;;;;2.60;2.38;;;;;;;18.14;81.79;100374.66;6250418;28;20685;-69
2023/07/25 08:14:40;;;;;;;4.25;1.70;;;;;;;18.64;79.96;100374.44;6263227;28;20228;-69
2023/07/25 08:18:01;;;;;;;2.63;1.75;;;;;;;18.30;80.10;100375.22;6248550;28;20255;-69
2023/07/25 08:21:23;;;;;;;4.45;2.50;;;;;;;17.58;81.81;100390.91;6221523;28;20229;-69
2023/07/25 08:24:45;;;;;;;5.10;2.22;;;;;;;17.24;83.49;100395.28;6230129;28;20220;-69
2023/07/25 08:28:07;;;;;;;4.05;2.25;;;;;;;17.29;85.47;100403.75;6232946;28;20252;-69
2023/07/25 08:31:29;;;;;;;4.03;2.00;;;;;;;17.52;86.45;100408.03;6230459;28;20590;-69
2023/07/25 08:34:50;;;;;;;6.25;1.65;;;;;;;18.04;86.30;100398.72;6239968;28;20239;-69
2023/07/25 08:38:11;;;;;;;10.07;3.38;;;;;;;18.40;85.70;100387.69;6250812;28;20227;-69
2023/07/25 08:41:37;;;;;;;4.30;2.88;;;;;;;18.82;84.23;100388.41;6257384;28;20235;-69
2023/07/25 08:45:00;;;;;;;5.15;2.17;;;;;;;18.72;82.26;100382.47;6256509;28;20231;-68
2023/07/25 08:48:24;;;;;;;3.65;1.90;;;;;;;19.14;82.00;100374.09;6254763;28;20351;-68
2023/07/25 08:51:48;;;;;;;3.40;1.90;;;;;;;19.43;80.19;100374.84;6246211;28;20623;-69
2023/07/25 08:55:10;;;;;;;8.68;2.92;;;;;;;20.06;78.74;100368.03;6254583;28;20232;-69
2023/07/25 08:58:32;;;;;;;2.25;2.05;;;;;;;20.22;77.56;100365.75;6257105;28;20231;-69
2023/07/25 09:01:54;;;;;;;13.35;2.83;;;;;;;20.03;76.25;100373.91;6260222;28;20223;-69
2023/07/25 09:05:16;;;;;;;1.80;1.70;;;;;;;19.87;75.91;100375.16;6209728;28;20580;-70
2023/07/25 09:08:37;;;;;;;3.60;1.75;;;;;;;19.14;76.76;100374.09;6221393;28;20227;-69
2023/07/25 09:11:59;;;;;;;4.55;1.85;;;;;;;19.28;77.31;100379.59;6213751;28;20236;-69
2023/07/25 09:15:24;;;;;;;6.03;2.22;;;;;;;19.17;79.21;100386.47;6192943;28;20240;-68
2023/07/25 09:18:46;;;;;;;7.35;2.13;;;;;;;18.59;81.42;100393.31;6215275;28;21602;-68
2023/07/25 09:22:26;;;;;;;2.42;1.90;;;;;;;18.24;83.07;100397.84;6246450;28;20566;-68
2023/07/25 09:25:48;;;;;;;5.82;2.22;;;;;;;17.77;83.67;100399.50;6219321;28;20231;-69
2023/07/25 09:29:09;;;;;;;4.82;2.00;;;;;;;17.54;85.13;100405.13;6234956;28;20231;-69
2023/07/25 09:32:32;;;;;;;3.25;2.22;;;;;;;17.66;85.83;100392.69;6229289;28;20240;-69
2023/07/25 09:35:54;;;;;;;2.28;2.13;;;;;;;17.61;84.80;100414.22;6231513;28;20605;-69
2023/07/25 09:39:16;;;;;;;2.08;1.27;;;;;;;16.52;86.84;100411.47;6211128;28;20232;-69
2023/07/25 09:42:41;;;;;;;7.22;1.88;;;;;;;16.39;89.34;100400.34;6233414;28;20231;-68
2023/07/25 09:46:02;;;;;;;1.90;1.38;;;;;;;16.63;90.92;100407.44;6245340;28;20267;-68
2023/07/25 09:49:26;;;;;;;1.73;1.38;;;;;;;17.21;91.42;100409.31;6256067;28;20231;-68
2023/07/25 09:52:47;;;;;;;1.98;1.77;;;;;;;17.30;90.68;100405.44;6250014;28;20668;-70
2023/07/25 09:56:10;;;;;;;4.45;1.98;;;;;;;17.49;90.84;100404.81;6257123;28;20303;-69
2023/07/25 09:59:31;;;;;;;10.07;2.22;;;;;;;18.02;89.52;100392.63;6254269;28;20315;-69
2023/07/25 10:02:53;;;;;;;4.20;1.75;;;;;;;18.38;87.57;100390.59;6220184;28;20223;-69
2023/07/25 10:06:18;;;;;;;2.63;2.10;;;;;;;18.15;86.86;100390.84;6256701;28;20255;-69
2023/07/25 10:09:40;;;;;;;4.40;2.75;;;;;;;18.18;86.63;100390.47;6236564;28;20256;-70
2023/07/25 10:13:01;;;;;;;3.42;1.67;;;;;;;19.18;85.60;100385.44;6230856;28;20303;-69
2023/07/25 10:16:23;;;;;;;2.28;1.42;;;;;;;19.41;84.34;100385.16;6260942;28;20232;-69
2023/07/25 10:19:49;;;;;;;1.95;1.75;;;;;;;19.93;83.03;100377.91;6221291;28;20338;-69
2023/07/25 10:23:14;;;;;;;2.53;2.10;;;;;;;19.62;80.66;100376.81;6220610;28;20656;-69
2023/07/25 10:26:35;;;;;;;5.43;1.90;;;;;;;19.67;78.66;100375.13;6227909;28;20224;-69
2023/07/25 10:30:02;;;;;;;1.70;1.27;;;;;;;18.97;79.67;100372.75;6228360;28;20232;-69
2023/07/25 10:33:24;;;;;;;2.97;1.58;;;;;;;19.00;80.36;100377.78;6255960;28;20230;-68
2023/07/25 10:36:45;;;;;;;3.90;1.80;;;;;;;19.80;77.64;100377.03;6222563;28;20232;-70
2023/07/25 10:40:14;;;;;;;1.90;1.80;;;;;;;20.99;76.30;100373.19;6241547;28;20562;-70
2023/07/25 10:43:58;;;;;;;2.50;1.38;;;;;;;21.05;73.18;100375.13;6248537;28;20266;-69
2023/07/25 10:47:49;;;;;;;9.90;2.42;;;;;;;21.18;72.38;100370.41;6264938;28;22065;-70
2023/07/25 10:51:12;;;;;;;1.42;0.93;;;;;;;21.09;70.49;100377.19;6238806;28;20231;-69
2023/07/25 10:54:33;;;;;;;1.88;1.45;;;;;;;20.81;68.12;100378.50;6243148;28;20255;-69
2023/07/25 10:58:10;;;;;;;3.35;1.85;;;;;;;21.03;66.97;100383.53;6237113;28;20502;-70
2023/07/25 11:01:33;;;;;;;2.72;2.00;;;;;;;20.09;68.96;100386.78;6246591;28;20235;-70
2023/07/25 11:05:20;;;;;;;2.17;1.55;;;;;;;18.77;71.94;100388.19;6251404;28;20934;-70
2023/07/25 11:08:43;;;;;;;1.83;1.30;;;;;;;18.02;74.67;100403.53;6259032;28;20559;-69
2023/07/25 11:12:06;;;;;;;2.10;1.90;;;;;;;17.75;76.13;100402.44;6246578;28;20232;-69
2023/07/25 11:15:30;;;;;;;2.50;1.15;;;;;;;18.23;75.95;100401.59;6270277;28;20224;-69
2023/07/25 11:18:52;;;;;;;3.85;1.92;;;;;;;17.96;75.85;100399.69;6251253;28;20501;-69
2023/07/25 11:22:14;;;;;;;3.67;1.77;;;;;;;18.71;75.51;100397.16;6224302;28;20236;-70
2023/07/25 11:25:35;;;;;;;3.85;1.33;;;;;;;18.93;74.21;100392.47;6231676;28;20231;-70
2023/07/25 11:29:02;;;;;;;1.55;1.45;;;;;;;18.81;74.77;100408.59;6225337;28;20246;-69
2023/07/25 11:32:28;;;;;;;4.70;1.85;;;;;;;19.25;74.26;100404.63;6240716;28;20303;-70
2023/07/25 11:35:52;;;;;;;6.60;2.20;;;;;;;19.09;73.78;100401.19;6233065;28;20229;-70
2023/07/25 11:39:14;;;;;;;4.32;1.60;;;;;;;18.82;74.15;100395.75;6256962;28;20241;-69
2023/07/25 11:42:36;;;;;;;2.33;1.17;;;;;;;19.09;74.70;100392.97;6235719;28;20223;-69
2023/07/25 11:45:58;;;;;;;2.72;1.65;;;;;;;19.00;74.06;100396.09;6221257;28;20324;-70
2023/07/25 11:49:21;;;;;;;1.30;1.20;;;;;;;19.82;73.19;100400.41;6245205;28;20322;-70
2023/07/25 11:52:44;;;;;;;2.95;1.63;;;;;;;20.21;71.71;100385.97;6246150;28;20281;-69
2023/07/25 11:56:06;;;;;;;2.17;1.95;;;;;;;20.57;69.22;100393.72;6251342;28;20227;-69
2023/07/25 11:59:28;;;;;;;2.22;1.58;;;;;;;21.51;67.49;100388.63;6232374;28;20668;-70
2023/07/25 12:02:49;;;;;;;1.90;1.23;;;;;;;22.08;64.91;100385.75;6254851;28;20231;-70
2023/07/25 12:06:12;;;;;;;2.28;1.38;;;;;;;22.09;64.47;100382.78;6250421;28;20243;-69
2023/07/25 12:09:33;;;;;;;3.58;1.50;;;;;;;22.71;63.95;100395.59;6256478;28;20232;-69
2023/07/25 12:12:55;;;;;;;2.22;1.45;;;;;;;22.70;63.21;100384.78;6219805;28;20323;-69
2023/07/25 12:16:25;;;;;;;2.65;1.63;;;;;;;22.03;63.68;100380.91;6249605;28;20231;-69
2023/07/25 12:19:57;;;;;;;2.58;0.95;;;;;;;21.64;63.04;100385.78;6246804;28;20540;-69
2023/07/25 12:23:26;;;;;;;2.70;1.20;;;;;;;21.63;62.26;100379.50;6225796;28;20228;-68
2023/07/25 12:26:51;;;;;;;3.25;1.27;;;;;;;21.95;57.78;100399.56;6234879;28;20243;-69
2023/07/25 12:30:12;;;;;;;7.70;1.48;;;;;;;21.39;57.96;100393.94;6233418;28;20612;-69
2023/07/25 12:33:34;;;;;;;5.57;1.20;;;;;;;20.84;59.50;100398.09;6242562;28;20245;-70
2023/07/25 12:36:55;;;;;;;7.80;1.20;;;;;;;20.67;59.04;100397.72;6232172;28;20232;-70
2023/07/25 12:40:18;;;;;;;7.32;2.00;;;;;;;21.24;58.88;100399.72;6253704;28;20235;-70
2023/07/25 12:43:39;;;;;;;1.98;1.83;;;;;;;20.95;57.91;100394.72;6254322;28;20234;-70
2023/07/25 12:47:00;;;;;;;3.90;1.50;;;;;;;22.18;56.92;100391.56;6242953;28;20247;-70
2023/07/25 12:50:22;;;;;;;5.47;1.85;;;;;;;22.23;55.28;100392.63;6248092;28;20232;-70
2023/07/25 12:53:43;;;;;;;1.75;1.33;;;;;;;22.13;56.10;100397.72;6230375;28;20244;-70
2023/07/25 12:57:06;;;;;;;2.13;1.13;;;;;;;21.51;56.46;100403.16;6243670;28;20314;-69
2023/07/25 13:00:28;;;;;;;2.05;1.63;;;;;;;21.06;57.82;100406.94;6256022;28;20319;-70
2023/07/25 13:03:50;;;;;;;0.90;0.80;;;;;;;20.67;58.15;100408.66;6230964;28;20233;-69
2023/07/25 13:07:11;;;;;;;6.90;1.33;;;;;;;20.70;58.97;100418.38;6246039;28;20224;-70
2023/07/25 13:10:32;;;;;;;2.25;0.95;;;;;;;20.57;59.18;100405.53;6276057;28;20228;-70
2023/07/25 13:13:54;;;;;;;1.92;1.55;;;;;;;20.55;59.11;100406.78;6249053;28;20232;-71
2023/07/25 13:17:16;;;;;;;2.40;1.35;;;;;;;20.78;57.26;100418.13;6237818;28;20247;-70
2023/07/25 13:20:37;;;;;;;1.20;1.10;;;;;;;21.32;55.66;100418.66;6230489;28;20228;-70
2023/07/25 13:23:58;;;;;;;1.77;0.80;;;;;;;22.44;52.73;100407.00;6262852;28;20243;-70
2023/07/25 13:27:19;;;;;;;2.67;1.55;;;;;;;22.35;51.20;100416.59;6239674;28;20235;-70
2023/07/25 13:30:43;;;;;;;1.60;1.15;;;;;;;21.45;53.38;100418.59;6277667;28;20227;-69
2023/07/25 13:34:04;;;;;;;2.13;1.13;;;;;;;20.78;54.87;100428.28;6264629;28;20226;-70
2023/07/25 13:37:25;;;;;;;4.35;1.40;;;;;;;21.18;54.88;100417.03;6252115;28;20223;-71
2023/07/25 13:40:47;;;;;;;3.08;0.93;;;;;;;22.93;51.54;100413.31;6275206;28;20232;-70
2023/07/25 13:44:08;;;;;;;1.63;0.93;;;;;;;21.44;52.86;100421.56;6260874;28;20586;-69
2023/07/25 13:47:31;;;;;;;2.45;1.20;;;;;;;22.23;53.31;100422.81;6252277;28;20590;-70
2023/07/25 13:50:52;;;;;;;4.43;1.95;;;;;;;23.05;49.81;100425.25;6237213;28;20236;-69
2023/07/25 13:54:14;;;;;;;1.13;0.90;;;;;;;24.63;45.43;100434.09;6261254;28;20231;-70
2023/07/25 13:57:35;;;;;;;6.80;1.30;;;;;;;22.98;47.36;100432.75;6226328;28;20235;-70
2023/07/25 14:00:56;;;;;;;2.28;0.98;;;;;;;23.77;47.02;100418.03;6246547;28;20228;-70
2023/07/25 14:04:20;;;;;;;2.90;0.82;;;;;;;21.88;50.21;100424.31;6265988;28;20440;-69
2023/07/25 14:07:41;;;;;;;0.93;0.70;;;;;;;21.57;51.38;100426.97;6257544;28;20255;-69
2023/07/25 14:11:03;;;;;;;3.45;1.50;;;;;;;21.26;52.55;100429.66;6272500;28;20219;-69
2023/07/25 14:14:24;;;;;;;3.55;1.40;;;;;;;21.98;52.27;100432.09;6246492;28;20497;-69
2023/07/25 14:17:46;;;;;;;2.20;1.17;;;;;;;22.09;53.40;100429.44;6217207;28;20235;-68
2023/07/25 14:21:09;;;;;;;4.10;1.27;;;;;;;22.05;55.46;100436.44;6270739;28;20223;-68
2023/07/25 14:24:31;;;;;;;2.45;0.70;;;;;;;22.54;54.54;100429.31;6268388;28;20228;-68
2023/07/25 14:27:52;;;;;;;2.65;1.00;;;;;;;22.17;52.98;100429.19;6246503;28;20644;-68
2023/07/25 14:31:13;;;;;;;7.80;7.00;;;;;;;21.84;51.59;100434.03;6220942;28;20232;-68
2023/07/25 14:34:35;;;;;;;8.88;1.20;;;;;;;23.06;52.59;100423.34;6230529;28;20236;-68
2023/07/25 14:37:58;;;;;;;3.15;0.93;;;;;;;23.11;50.69;100430.91;6251122;28;20251;-68
2023/07/25 14:41:19;;;;;;;2.63;1.02;;;;;;;23.24;50.03;100439.84;6260693;28;21960;-68
2023/07/25 14:44:53;;;;;;;1.73;1.05;;;;;;;24.00;48.56;100442.06;6221481;28;20235;-69
2023/07/25 14:48:28;;;;;;;1.42;0.70;;;;;;;24.22;48.37;100446.84;6226194;28;20232;-68
2023/07/25 14:51:55;;;;;;;5.20;1.55;;;;;;;23.65;49.17;100436.41;6242425;28;20247;-68
2023/07/25 14:55:18;;;;;;;0.98;0.95;;;;;;;23.67;47.33;100440.63;6236484;28;20264;-68
2023/07/25 14:58:40;;;;;;;1.65;0.95;;;;;;;23.13;48.28;100443.38;6246747;28;20451;-68
2023/07/25 15:02:01;;;;;;;0.60;0.60;;;;;;;23.98;49.60;100445.06;6250654;28;20311;-68
2023/07/25 15:05:22;;;;;;;3.88;0.90;;;;;;;23.68;48.02;100450.56;6256398;28;20597;-68
2023/07/25 15:08:43;;;;;;;1.50;1.00;;;;;;;23.64;48.83;100446.59;6258696;28;20231;-68
2023/07/25 15:12:06;;;;;;;1.38;1.00;;;;;;;22.97;48.94;100447.53;6256225;28;20232;-69
2023/07/25 15:15:27;;;;;;;0.82;0.80;;;;;;;23.17;48.39;100454.75;6230450;28;20572;-68
2023/07/25 15:18:49;;;;;;;3.00;1.02;;;;;;;21.87;49.75;100455.59;6252106;28;20231;-68
2023/07/25 15:22:10;;;;;;;4.35;1.65;;;;;;;22.51;50.50;100451.78;6238414;28;20236;-69
2023/07/25 15:25:32;;;;;;;2.55;1.10;;;;;;;23.13;49.19;100457.13;6253117;28;20219;-67
2023/07/25 15:28:54;;;;;;;3.85;2.72;;;;;;;23.31;49.69;100459.88;6231006;28;20282;-68
2023/07/25 15:32:16;;;;;;;2.83;1.33;;;;;;;23.06;48.17;100467.34;6248485;28;20282;-68
2023/07/25 15:35:38;;;;;;;2.35;0.98;;;;;;;23.36;48.78;100465.59;6213480;28;20233;-68
2023/07/25 15:39:00;;;;;;;1.88;0.82;;;;;;;23.50;48.36;100467.09;6255051;28;20251;-68
2023/07/25 15:42:21;;;;;;;2.33;1.27;;;;;;;23.58;49.08;100480.53;6231989;28;20326;-68